createdAt,value
2022-11-18T00:01:21.689Z,7.96
2022-11-18T00:03:50.386Z,7.94
2022-11-18T00:06:20.589Z,7.94
2022-11-18T00:08:49.279Z,7.93
2022-11-18T00:11:40.020Z,7.92
2022-11-18T00:14:21.462Z,7.91
2022-11-18T00:16:52.974Z,7.93
2022-11-18T00:19:21.601Z,7.90
2022-11-18T00:21:49.928Z,7.87
2022-11-18T00:24:18.312Z,7.82
2022-11-18T00:26:46.761Z,7.81
2022-11-18T00:29:15.334Z,7.81
2022-11-18T00:31:44.569Z,7.76
2022-11-18T00:34:15.670Z,7.70
2022-11-18T00:36:45.119Z,7.67
2022-11-18T00:39:14.494Z,7.70
2022-11-18T00:41:53.577Z,7.71
2022-11-18T00:44:21.939Z,7.70
2022-11-18T00:46:50.259Z,7.68
2022-11-18T00:49:20.115Z,7.71
2022-11-18T00:51:48.451Z,7.72
2022-11-18T00:54:16.849Z,7.72
2022-11-18T00:56:45.030Z,7.72
2022-11-18T00:59:13.491Z,7.72
2022-11-18T01:01:41.784Z,7.72
2022-11-18T01:04:10.227Z,7.73
2022-11-18T01:06:39.829Z,7.76
2022-11-18T01:09:08.540Z,7.77
2022-11-18T01:11:47.084Z,7.79
2022-11-18T01:14:15.489Z,7.82
2022-11-18T01:16:43.698Z,7.83
2022-11-18T01:19:12.568Z,7.83
2022-11-18T01:21:42.164Z,7.83
2022-11-18T01:24:10.521Z,7.85
2022-11-18T01:26:38.699Z,7.87
2022-11-18T01:29:07.107Z,7.85
2022-11-18T01:31:35.393Z,7.88
2022-11-18T01:34:04.072Z,7.88
2022-11-18T01:36:32.411Z,7.88
2022-11-18T01:39:02.544Z,7.89
2022-11-18T01:41:30.824Z,7.85
2022-11-18T01:44:00.242Z,7.83
2022-11-18T01:46:29.539Z,7.85
2022-11-18T01:49:01.372Z,7.85
2022-11-18T01:51:31.909Z,7.89
2022-11-18T01:54:01.999Z,7.88
2022-11-18T01:56:34.234Z,7.89
2022-11-18T01:59:04.598Z,7.89
2022-11-18T02:01:33.108Z,7.90
2022-11-18T02:04:01.904Z,7.89
2022-11-18T02:06:30.381Z,7.79
2022-11-18T02:08:59.110Z,7.72
2022-11-18T02:11:37.354Z,7.70
2022-11-18T02:14:08.173Z,7.71
2022-11-18T02:16:42.573Z,7.78
2022-11-18T02:19:20.100Z,7.79
2022-11-18T02:21:56.982Z,7.73
2022-11-18T02:24:30.692Z,7.71
2022-11-18T02:27:10.323Z,7.66
2022-11-18T02:29:44.294Z,7.63
2022-11-18T02:32:15.002Z,7.66
2022-11-18T02:34:49.069Z,7.70
2022-11-18T02:37:20.583Z,7.75
2022-11-18T02:39:53.467Z,7.73
2022-11-18T02:42:22.652Z,7.70
2022-11-18T02:44:54.321Z,7.66
2022-11-18T02:47:24.677Z,7.69
2022-11-18T02:49:55.791Z,7.73
2022-11-18T02:52:25.742Z,7.76
2022-11-18T02:54:55.359Z,7.75
2022-11-18T02:57:25.285Z,7.72
2022-11-18T02:59:55.092Z,7.72
2022-11-18T03:02:23.783Z,7.73
2022-11-18T03:04:56.563Z,7.74
2022-11-18T03:07:27.558Z,7.79
2022-11-18T03:09:56.572Z,7.79
2022-11-18T03:12:31.582Z,7.81
2022-11-18T03:15:08.949Z,7.79
2022-11-18T03:17:44.959Z,7.81
2022-11-18T03:20:16.802Z,7.81
2022-11-18T03:22:49.168Z,7.82
2022-11-18T03:25:21.703Z,7.81
2022-11-18T03:27:54.044Z,7.77
2022-11-18T03:30:24.939Z,7.76
2022-11-18T03:32:57.702Z,7.77
2022-11-18T03:35:27.053Z,7.76
2022-11-18T03:37:58.405Z,7.73
2022-11-18T03:40:28.432Z,7.75
2022-11-18T03:43:00.127Z,7.75
2022-11-18T03:45:31.931Z,7.76
2022-11-18T03:48:03.929Z,7.69
2022-11-18T03:50:34.379Z,7.69
2022-11-18T03:53:03.208Z,7.70
2022-11-18T03:55:34.860Z,7.69
2022-11-18T03:58:05.050Z,7.63
2022-11-18T04:00:42.563Z,7.64
2022-11-18T04:03:11.622Z,7.62
2022-11-18T04:05:41.409Z,7.64
2022-11-18T04:08:13.675Z,7.68
2022-11-18T04:10:44.232Z,7.68
2022-11-18T04:13:15.292Z,7.65
2022-11-18T04:15:45.804Z,7.65
2022-11-18T04:18:14.181Z,7.62
2022-11-18T04:20:42.870Z,7.61
2022-11-18T04:23:11.579Z,7.58
2022-11-18T04:25:40.067Z,7.56
2022-11-18T04:28:10.568Z,7.55
2022-11-18T04:30:38.910Z,7.57
2022-11-18T04:33:08.601Z,7.52
2022-11-18T04:35:36.972Z,7.43
2022-11-18T04:38:05.348Z,7.40
2022-11-18T04:40:33.800Z,7.37
2022-11-18T04:43:02.079Z,7.35
2022-11-18T04:45:30.451Z,7.29
2022-11-18T04:48:03.300Z,7.25
2022-11-18T04:50:33.730Z,7.27
2022-11-18T04:53:02.070Z,7.27
2022-11-18T04:55:30.330Z,7.26
2022-11-18T04:57:58.923Z,7.28
2022-11-18T05:00:27.232Z,7.28
2022-11-18T05:02:56.799Z,7.26
2022-11-18T05:05:25.121Z,7.22
2022-11-18T05:07:54.903Z,7.27
2022-11-18T05:10:23.171Z,7.27
2022-11-18T05:12:50.427Z,7.29
2022-11-18T05:15:19.367Z,7.32
2022-11-18T05:17:48.102Z,7.29
2022-11-18T05:20:16.845Z,7.23
2022-11-18T05:22:45.198Z,7.22
2022-11-18T05:25:15.329Z,7.27
2022-11-18T05:27:43.680Z,7.27
2022-11-18T05:30:12.610Z,7.30
2022-11-18T05:32:40.942Z,7.32
2022-11-18T05:35:09.610Z,7.31
2022-11-18T05:37:37.991Z,7.31
2022-11-18T05:40:06.864Z,7.33
2022-11-18T05:42:46.505Z,7.38
2022-11-18T05:45:16.274Z,7.39
2022-11-18T05:47:58.502Z,7.38
2022-11-18T05:50:26.869Z,7.40
2022-11-18T05:52:55.121Z,7.46
2022-11-18T05:55:25.713Z,7.49
2022-11-18T05:57:55.461Z,7.51
2022-11-18T06:00:23.779Z,7.53
2022-11-18T06:02:53.965Z,7.53
2022-11-18T06:05:24.192Z,7.53
2022-11-18T06:07:52.561Z,7.54
2022-11-18T06:10:23.788Z,7.56
2022-11-18T06:12:54.121Z,7.55
2022-11-18T06:15:25.711Z,7.56
2022-11-18T06:17:56.002Z,7.55
2022-11-18T06:20:24.591Z,7.58
2022-11-18T06:22:55.573Z,7.60
2022-11-18T06:25:24.455Z,7.60
2022-11-18T06:27:53.697Z,7.63
2022-11-18T06:30:24.374Z,7.63
2022-11-18T06:32:52.763Z,7.65
2022-11-18T06:35:21.043Z,7.62
2022-11-18T06:37:51.331Z,7.62
2022-11-18T06:40:20.374Z,7.60
2022-11-18T06:42:58.542Z,7.60
2022-11-18T06:45:28.242Z,7.63
2022-11-18T06:47:57.063Z,7.64
2022-11-18T06:50:25.817Z,7.65
2022-11-18T06:52:54.225Z,7.65
2022-11-18T06:55:22.552Z,7.67
2022-11-18T06:57:51.483Z,7.68
2022-11-18T07:00:20.181Z,7.70
2022-11-18T07:02:49.893Z,7.69
2022-11-18T07:05:18.432Z,7.67
2022-11-18T07:07:46.750Z,7.66
2022-11-18T07:10:15.352Z,7.66
2022-11-18T07:12:43.655Z,7.58
2022-11-18T07:15:12.134Z,7.54
2022-11-18T07:17:40.423Z,7.53
2022-11-18T07:20:11.042Z,7.55
2022-11-18T07:22:39.427Z,7.57
2022-11-18T07:25:07.694Z,7.55
2022-11-18T07:27:36.424Z,7.58
2022-11-18T07:30:04.931Z,7.65
2022-11-18T07:32:34.355Z,7.72
2022-11-18T07:35:02.731Z,7.75
2022-11-18T07:37:32.683Z,7.80
2022-11-18T07:40:01.062Z,7.84
2022-11-18T07:42:29.291Z,7.88
2022-11-18T07:44:57.584Z,7.87
2022-11-18T07:47:25.853Z,7.84
2022-11-18T07:49:54.575Z,7.82
2022-11-18T07:52:22.986Z,7.81
2022-11-18T07:54:52.905Z,7.78
2022-11-18T07:57:21.414Z,7.78
2022-11-18T07:59:49.654Z,7.78
2022-11-18T08:02:18.016Z,7.80
2022-11-18T08:04:46.282Z,7.77
2022-11-18T08:07:14.980Z,7.77
2022-11-18T08:09:43.281Z,7.79
2022-11-18T08:12:13.013Z,7.79
2022-11-18T08:14:41.317Z,7.75
2022-11-18T08:17:09.662Z,7.74
2022-11-18T08:19:37.985Z,7.77
2022-11-18T08:22:06.270Z,7.83
2022-11-18T08:24:34.578Z,7.89
2022-11-18T08:27:03.015Z,7.94
2022-11-18T08:29:32.852Z,7.90
2022-11-18T08:32:01.572Z,7.91
2022-11-18T08:34:30.415Z,7.91
2022-11-18T08:36:59.185Z,7.91
2022-11-18T08:39:27.510Z,7.93
2022-11-18T08:41:56.361Z,7.97
2022-11-18T08:44:24.591Z,7.97
2022-11-18T08:46:54.280Z,7.93
2022-11-18T08:49:22.522Z,7.92
2022-11-18T08:51:50.773Z,7.94
2022-11-18T08:54:19.044Z,7.92
2022-11-18T08:56:47.331Z,7.95
2022-11-18T08:59:15.998Z,7.97
2022-11-18T09:01:44.497Z,8.04
2022-11-18T09:04:14.434Z,8.11
2022-11-18T09:06:42.789Z,8.09
2022-11-18T09:09:11.252Z,8.13
2022-11-18T09:11:40.416Z,8.19
2022-11-18T09:16:56.942Z,8.10
2022-11-18T09:22:15.556Z,8.22
2022-11-18T09:24:45.153Z,8.26
2022-11-18T09:27:16.927Z,8.27
2022-11-18T09:29:45.893Z,8.27
2022-11-18T09:32:14.090Z,8.21
2022-11-18T09:34:44.504Z,8.25
2022-11-18T09:37:13.028Z,8.23
2022-11-18T09:39:41.325Z,8.25
2022-11-18T09:42:17.498Z,8.21
2022-11-18T09:45:07.347Z,8.18
2022-11-18T09:47:38.804Z,8.23
2022-11-18T09:50:41.591Z,8.27
2022-11-18T09:53:05.714Z,8.36
2022-11-18T09:55:36.004Z,8.39
2022-11-18T09:58:08.055Z,8.39
2022-11-18T10:00:36.454Z,8.46
2022-11-18T10:03:06.596Z,8.48
2022-11-18T10:05:43.750Z,8.50
2022-11-18T10:08:18.573Z,8.52
2022-11-18T10:10:56.706Z,8.48
2022-11-18T10:13:33.273Z,8.40
2022-11-18T10:16:05.032Z,8.42
2022-11-18T10:18:59.057Z,8.46
2022-11-18T10:21:34.264Z,8.49
2022-11-18T10:24:04.293Z,8.50
2022-11-18T10:26:36.172Z,8.53
2022-11-18T10:29:07.677Z,8.59
2022-11-18T10:31:37.901Z,8.62
2022-11-18T10:34:06.174Z,8.65
2022-11-18T10:36:38.101Z,8.70
2022-11-18T10:39:07.103Z,8.72
2022-11-18T10:41:40.073Z,8.76
2022-11-18T10:44:28.982Z,8.82
2022-11-18T10:46:57.645Z,8.83
2022-11-18T10:49:26.007Z,8.82
2022-11-18T10:52:10.397Z,8.82
2022-11-18T10:54:39.093Z,8.81
2022-11-18T10:57:08.671Z,8.79
2022-11-18T10:59:41.509Z,8.76
2022-11-18T11:02:16.745Z,8.73
2022-11-18T11:04:46.189Z,8.71
2022-11-18T11:07:25.339Z,8.70
2022-11-18T11:10:12.336Z,8.69
2022-11-18T11:12:47.441Z,8.72
2022-11-18T11:15:18.613Z,8.71
2022-11-18T11:18:09.811Z,8.72
2022-11-18T11:20:38.185Z,8.74
2022-11-18T11:23:11.759Z,8.75
2022-11-18T11:28:38.555Z,8.73
2022-11-18T11:31:15.332Z,8.73
2022-11-18T11:33:48.244Z,8.73
2022-11-18T11:36:22.376Z,8.74
2022-11-18T11:39:04.281Z,8.76
2022-11-18T11:41:40.755Z,8.76
2022-11-18T11:44:19.165Z,8.77
2022-11-18T11:47:08.575Z,8.79
2022-11-18T11:49:45.395Z,8.78
2022-11-18T11:52:18.226Z,8.78
2022-11-18T11:54:53.773Z,8.78
2022-11-18T11:57:26.753Z,8.76
2022-11-18T12:00:03.086Z,8.73
2022-11-18T12:02:55.346Z,8.66
2022-11-18T12:05:24.707Z,8.55
2022-11-18T12:07:55.879Z,8.55
2022-11-18T12:10:31.794Z,8.50
2022-11-18T12:13:09.137Z,8.44
2022-11-18T12:15:43.867Z,8.37
2022-11-18T12:18:17.115Z,8.36
2022-11-18T12:20:47.335Z,8.36
2022-11-18T12:23:18.095Z,8.34
2022-11-18T12:25:54.990Z,8.32
2022-11-18T12:28:28.804Z,8.30
2022-11-18T12:31:07.923Z,8.32
2022-11-18T12:33:43.489Z,8.33
2022-11-18T12:36:26.735Z,8.31
2022-11-18T12:38:55.445Z,8.30
2022-11-18T12:41:48.175Z,8.27
2022-11-18T12:44:24.319Z,8.25
2022-11-18T12:46:53.871Z,8.25
2022-11-18T12:49:33.248Z,8.25
2022-11-18T12:52:01.997Z,8.20
2022-11-18T12:54:33.467Z,8.18
2022-11-18T12:57:03.196Z,8.15
2022-11-18T12:59:34.234Z,8.18
2022-11-18T13:02:03.917Z,8.17
2022-11-18T13:04:32.286Z,8.15
2022-11-18T13:07:01.580Z,8.19
2022-11-18T13:09:31.656Z,8.25
2022-11-18T13:12:08.964Z,8.22
2022-11-18T13:14:51.417Z,8.25
2022-11-18T13:17:36.558Z,8.26
2022-11-18T13:20:04.996Z,8.24
2022-11-18T13:22:42.360Z,8.16
2022-11-18T13:25:21.497Z,8.11
2022-11-18T13:27:53.687Z,8.10
2022-11-18T13:30:23.397Z,8.08
2022-11-18T13:32:52.894Z,8.08
2022-11-18T13:35:23.155Z,8.03
2022-11-18T13:37:53.437Z,8.02
2022-11-18T13:40:23.510Z,8.03
2022-11-18T13:42:51.756Z,8.03
2022-11-18T13:45:20.348Z,8.05
2022-11-18T13:47:52.215Z,8.02
2022-11-18T13:50:23.657Z,8.00
2022-11-18T13:52:54.988Z,7.98
2022-11-18T13:55:24.898Z,7.96
2022-11-18T13:57:57.938Z,7.91
2022-11-18T14:00:27.484Z,7.83
2022-11-18T14:02:58.431Z,7.79
2022-11-18T14:05:27.047Z,7.77
2022-11-18T14:08:01.066Z,7.73
2022-11-18T14:10:38.193Z,7.68
2022-11-18T14:13:18.364Z,7.64
2022-11-18T14:15:46.949Z,7.60
2022-11-18T14:18:22.508Z,7.56
2022-11-18T14:20:52.354Z,7.55
2022-11-18T14:23:23.851Z,7.54
2022-11-18T14:25:52.230Z,7.50
2022-11-18T14:28:22.792Z,7.47
2022-11-18T14:31:02.276Z,7.45
2022-11-18T14:33:32.599Z,7.40
2022-11-18T14:36:01.954Z,7.38
2022-11-18T14:38:51.981Z,7.38
2022-11-18T14:41:44.677Z,7.36
2022-11-18T14:44:14.550Z,7.30
2022-11-18T14:46:44.070Z,7.30
2022-11-18T14:49:15.726Z,7.23
2022-11-18T14:51:44.462Z,7.24
2022-11-18T14:54:14.160Z,7.27
2022-11-18T14:56:43.034Z,7.25
2022-11-18T14:59:13.658Z,7.25
2022-11-18T15:01:43.028Z,7.23
2022-11-18T15:04:11.663Z,7.20
2022-11-18T15:06:41.560Z,7.21
2022-11-18T15:09:10.122Z,7.21
2022-11-18T15:11:38.436Z,7.17
2022-11-18T15:14:06.867Z,7.18
2022-11-18T15:16:35.672Z,7.16
2022-11-18T15:19:05.295Z,7.17
2022-11-18T15:21:33.873Z,7.13
2022-11-18T15:24:03.630Z,7.09
2022-11-18T15:26:38.101Z,7.06
2022-11-18T15:29:06.699Z,7.02
2022-11-18T15:31:34.968Z,7.00
2022-11-18T15:34:06.740Z,6.94
2022-11-18T15:36:35.681Z,6.91
2022-11-18T15:39:05.390Z,6.96
2022-11-18T15:41:33.921Z,6.96
2022-11-18T15:44:03.020Z,6.90
2022-11-18T15:46:33.480Z,6.88
2022-11-18T15:49:02.061Z,6.84
2022-11-18T15:51:31.498Z,6.78
2022-11-18T15:53:59.920Z,6.72
2022-11-18T15:56:30.706Z,6.74
2022-11-18T15:59:00.380Z,6.69
2022-11-18T16:01:29.536Z,6.67
2022-11-18T16:03:58.191Z,6.65
2022-11-18T16:06:26.495Z,6.56
2022-11-18T16:08:59.498Z,6.54
2022-11-18T16:11:40.573Z,6.56
2022-11-18T16:14:09.914Z,6.51
2022-11-18T16:16:38.464Z,6.46
2022-11-18T16:19:08.183Z,6.46
2022-11-18T16:21:37.853Z,6.43
2022-11-18T16:24:07.368Z,6.42
2022-11-18T16:26:37.475Z,6.44
2022-11-18T16:29:07.026Z,6.42
2022-11-18T16:31:45.101Z,6.39
2022-11-18T16:34:14.741Z,6.39
2022-11-18T16:36:44.133Z,6.40
2022-11-18T16:39:13.575Z,6.39
2022-11-18T16:41:44.376Z,6.32
2022-11-18T16:44:14.814Z,6.27
2022-11-18T16:46:44.413Z,6.26
2022-11-18T16:49:14.727Z,6.25
2022-11-18T16:51:44.146Z,6.21
2022-11-18T16:54:17.277Z,6.17
2022-11-18T16:56:47.748Z,6.14
2022-11-18T16:59:17.496Z,6.11
2022-11-18T17:01:46.304Z,6.08
2022-11-18T17:04:14.884Z,6.09
2022-11-18T17:06:43.375Z,6.08
2022-11-18T17:09:14.516Z,6.04
2022-11-18T17:11:42.842Z,6.01
2022-11-18T17:14:12.608Z,5.94
2022-11-18T17:16:41.150Z,5.96
2022-11-18T17:19:12.843Z,5.92
2022-11-18T17:21:41.224Z,5.92
2022-11-18T17:24:10.097Z,5.88
2022-11-18T17:26:38.461Z,5.86
2022-11-18T17:29:06.810Z,5.85
2022-11-18T17:31:36.430Z,5.84
2022-11-18T17:34:05.165Z,5.84
2022-11-18T17:36:33.565Z,5.81
2022-11-18T17:39:02.685Z,5.73
2022-11-18T17:41:41.706Z,5.68
2022-11-18T17:44:10.925Z,5.63
2022-11-18T17:46:41.226Z,5.65
2022-11-18T17:49:14.393Z,5.60
2022-11-18T17:51:43.205Z,5.56
2022-11-18T17:54:11.472Z,5.51
2022-11-18T17:56:39.943Z,5.45
2022-11-18T17:59:08.462Z,5.42
2022-11-18T18:01:37.042Z,5.36
2022-11-18T18:04:06.744Z,5.31
2022-11-18T18:06:35.286Z,5.31
2022-11-18T18:09:03.575Z,5.29
2022-11-18T18:11:31.945Z,5.25
2022-11-18T18:14:09.027Z,5.25
2022-11-18T18:16:37.760Z,5.26
2022-11-18T18:19:07.687Z,5.24
2022-11-18T18:21:36.934Z,5.24
2022-11-18T18:24:05.773Z,5.20
2022-11-18T18:26:34.155Z,5.21
2022-11-18T18:29:02.456Z,5.21
2022-11-18T18:31:34.046Z,5.18
2022-11-18T18:34:02.879Z,5.15
2022-11-18T18:36:32.792Z,5.11
2022-11-18T18:39:02.476Z,5.02
2022-11-18T18:41:32.510Z,5.01
2022-11-18T18:44:01.310Z,5.03
2022-11-18T18:46:29.456Z,4.98
2022-11-18T18:48:59.238Z,4.92
2022-11-18T18:51:28.262Z,4.94
2022-11-18T18:53:58.825Z,4.90
2022-11-18T18:56:27.566Z,4.92
2022-11-18T18:58:56.527Z,4.91
2022-11-18T19:01:25.207Z,4.88
2022-11-18T19:03:55.685Z,4.82
2022-11-18T19:06:50.511Z,4.81
2022-11-18T19:09:17.522Z,4.80
2022-11-18T19:11:56.023Z,4.79
2022-11-18T19:14:25.048Z,4.75
2022-11-18T19:16:53.414Z,4.75
2022-11-18T19:19:43.338Z,4.72
2022-11-18T19:22:13.527Z,4.71
2022-11-18T19:24:49.789Z,4.72
2022-11-18T19:27:18.914Z,4.64
2022-11-18T19:29:47.299Z,4.60
2022-11-18T19:32:16.259Z,4.60
2022-11-18T19:34:44.568Z,4.61
2022-11-18T19:37:13.086Z,4.58
2022-11-18T19:39:41.397Z,4.58
2022-11-18T19:42:11.356Z,4.54
2022-11-18T19:44:39.778Z,4.49
2022-11-18T19:47:08.015Z,4.54
2022-11-18T19:49:36.378Z,4.56
2022-11-18T19:52:04.645Z,4.53
2022-11-18T19:54:32.989Z,4.52
2022-11-18T19:57:04.168Z,4.48
2022-11-18T19:59:34.155Z,4.45
2022-11-18T20:02:02.429Z,4.44
2022-11-18T20:04:30.760Z,4.46
2022-11-18T20:06:59.067Z,4.40
2022-11-18T20:09:27.419Z,4.36
2022-11-18T20:11:55.969Z,4.30
2022-11-18T20:14:24.326Z,4.24
2022-11-18T20:16:54.140Z,4.24
2022-11-18T20:19:22.960Z,4.25
2022-11-18T20:21:52.737Z,4.19
2022-11-18T20:24:21.046Z,4.21
2022-11-18T20:26:49.287Z,4.23
2022-11-18T20:29:18.038Z,4.23
2022-11-18T20:31:46.739Z,4.21
2022-11-18T20:34:16.396Z,4.14
2022-11-18T20:36:46.706Z,4.16
2022-11-18T20:39:16.314Z,4.15
2022-11-18T20:42:04.744Z,4.12
2022-11-18T20:44:33.070Z,4.01
2022-11-18T20:47:01.332Z,3.96
2022-11-18T20:49:31.129Z,3.92
2022-11-18T20:51:59.499Z,3.95
2022-11-18T20:54:27.878Z,3.96
2022-11-18T20:56:56.338Z,3.94
2022-11-18T20:59:24.788Z,3.95
2022-11-18T21:01:53.148Z,3.94
2022-11-18T21:04:21.417Z,4.01
2022-11-18T21:06:54.809Z,4.00
2022-11-18T21:09:23.176Z,3.94
2022-11-18T21:11:52.257Z,3.96
2022-11-18T21:14:24.498Z,3.98
2022-11-18T21:16:54.016Z,3.97
2022-11-18T21:19:22.562Z,3.96
2022-11-18T21:21:53.019Z,3.99
2022-11-18T21:24:23.203Z,3.95
2022-11-18T21:26:54.905Z,3.97
2022-11-18T21:29:23.601Z,3.99
2022-11-18T21:31:51.874Z,3.90
2022-11-18T21:34:20.269Z,3.89
2022-11-18T21:36:53.147Z,3.87
2022-11-18T21:39:24.426Z,3.83
2022-11-18T21:41:56.266Z,3.80
2022-11-18T21:44:26.080Z,3.77
2022-11-18T21:46:54.416Z,3.71
2022-11-18T21:49:23.112Z,3.67
2022-11-18T21:51:51.602Z,3.67
2022-11-18T21:54:20.018Z,3.67
2022-11-18T21:56:49.657Z,3.66
2022-11-18T21:59:18.184Z,3.66
2022-11-18T22:01:46.819Z,3.65
2022-11-18T22:04:35.227Z,3.62
2022-11-18T22:07:03.542Z,3.52
2022-11-18T22:09:36.387Z,3.49
2022-11-18T22:12:08.588Z,3.49
2022-11-18T22:14:37.108Z,3.46
2022-11-18T22:17:05.440Z,3.42
2022-11-18T22:19:33.958Z,3.46
2022-11-18T22:22:02.389Z,3.41
2022-11-18T22:24:30.828Z,3.38
2022-11-18T22:26:59.200Z,3.31
2022-11-18T22:29:29.086Z,3.31
2022-11-18T22:31:57.359Z,3.27
2022-11-18T22:34:25.786Z,3.26
2022-11-18T22:36:54.135Z,3.27
2022-11-18T22:39:22.562Z,3.31
2022-11-18T22:41:59.947Z,3.30
2022-11-18T22:44:29.775Z,3.25
2022-11-18T22:46:58.658Z,3.21
2022-11-18T22:49:26.966Z,3.19
2022-11-18T22:51:55.249Z,3.19
2022-11-18T22:54:38.237Z,3.20
2022-11-18T22:57:07.422Z,3.18
2022-11-18T22:59:37.236Z,3.17
2022-11-18T23:02:06.558Z,3.09
2022-11-18T23:04:34.861Z,3.05
2022-11-18T23:07:03.389Z,3.01
2022-11-18T23:09:31.642Z,3.01
2022-11-18T23:12:09.717Z,3.01
2022-11-18T23:14:40.127Z,3.04
2022-11-18T23:17:08.498Z,3.02
2022-11-18T23:19:42.393Z,2.97
2022-11-18T23:22:10.974Z,2.96
2022-11-18T23:24:39.239Z,2.95
2022-11-18T23:27:07.660Z,2.94
2022-11-18T23:29:35.954Z,2.95
2022-11-18T23:32:06.004Z,2.92
2022-11-18T23:34:34.448Z,2.86
2022-11-18T23:37:02.759Z,2.86
2022-11-18T23:39:31.575Z,2.77
2022-11-18T23:41:59.925Z,2.74
2022-11-18T23:44:42.188Z,2.72
2022-11-18T23:47:12.208Z,2.69
2022-11-18T23:49:40.569Z,2.70
2022-11-18T23:52:09.115Z,2.72
2022-11-18T23:54:38.178Z,2.71
2022-11-18T23:57:06.414Z,2.68
2022-11-18T23:59:34.784Z,2.65
